sensor_id;sensor_type;location;lat;lon;timestamp;P1;durP1;ratioP1;P2;durP2;ratioP2
7199;SDS011;3641;49.082;8.200;2023-02-11T00:01:43;63.08;;;30.92;;
7199;SDS011;3641;49.082;8.200;2023-02-11T00:04:10;70.07;;;34.20;;
7199;SDS011;3641;49.082;8.200;2023-02-11T00:06:36;64.28;;;31.50;;
7199;SDS011;3641;49.082;8.200;2023-02-11T00:09:03;58.60;;;30.90;;
7199;SDS011;3641;49.082;8.200;2023-02-11T00:11:32;59.45;;;31.25;;
7199;SDS011;3641;49.082;8.200;2023-02-11T00:14:00;62.28;;;30.65;;
7199;SDS011;3641;49.082;8.200;2023-02-11T00:16:29;61.42;;;31.05;;
7199;SDS011;3641;49.082;8.200;2023-02-11T00:18:57;60.35;;;30.02;;
7199;SDS011;3641;49.082;8.200;2023-02-11T00:21:24;64.18;;;31.42;;
7199;SDS011;3641;49.082;8.200;2023-02-11T00:23:51;62.35;;;30.40;;
7199;SDS011;3641;49.082;8.200;2023-02-11T00:26:20;59.08;;;30.55;;
7199;SDS011;3641;49.082;8.200;2023-02-11T00:28:50;58.05;;;30.98;;
7199;SDS011;3641;49.082;8.200;2023-02-11T00:31:18;65.25;;;31.95;;
7199;SDS011;3641;49.082;8.200;2023-02-11T00:33:46;68.78;;;31.95;;
7199;SDS011;3641;49.082;8.200;2023-02-11T00:36:14;68.03;;;32.35;;
7199;SDS011;3641;49.082;8.200;2023-02-11T00:38:42;67.65;;;34.85;;
7199;SDS011;3641;49.082;8.200;2023-02-11T00:41:09;75.70;;;36.70;;
7199;SDS011;3641;49.082;8.200;2023-02-11T00:43:35;65.97;;;33.95;;
7199;SDS011;3641;49.082;8.200;2023-02-11T00:46:03;66.47;;;33.28;;
7199;SDS011;3641;49.082;8.200;2023-02-11T00:48:30;68.95;;;33.28;;
7199;SDS011;3641;49.082;8.200;2023-02-11T00:50:57;65.05;;;32.97;;
7199;SDS011;3641;49.082;8.200;2023-02-11T00:53:24;68.88;;;33.42;;
7199;SDS011;3641;49.082;8.200;2023-02-11T00:55:50;71.00;;;33.35;;
7199;SDS011;3641;49.082;8.200;2023-02-11T00:58:17;69.50;;;34.60;;
7199;SDS011;3641;49.082;8.200;2023-02-11T01:00:43;76.18;;;35.67;;
7199;SDS011;3641;49.082;8.200;2023-02-11T01:03:11;71.35;;;34.60;;
7199;SDS011;3641;49.082;8.200;2023-02-11T01:05:38;76.65;;;35.60;;
7199;SDS011;3641;49.082;8.200;2023-02-11T01:08:04;69.88;;;34.22;;
7199;SDS011;3641;49.082;8.200;2023-02-11T01:10:31;75.03;;;36.30;;
7199;SDS011;3641;49.082;8.200;2023-02-11T01:12:58;69.28;;;35.08;;
7199;SDS011;3641;49.082;8.200;2023-02-11T01:15:25;71.38;;;35.47;;
7199;SDS011;3641;49.082;8.200;2023-02-11T01:17:52;72.35;;;35.60;;
7199;SDS011;3641;49.082;8.200;2023-02-11T01:20:21;67.90;;;34.85;;
7199;SDS011;3641;49.082;8.200;2023-02-11T01:22:49;69.03;;;34.58;;
7199;SDS011;3641;49.082;8.200;2023-02-11T01:25:15;68.18;;;34.42;;
7199;SDS011;3641;49.082;8.200;2023-02-11T01:27:42;70.15;;;33.60;;
7199;SDS011;3641;49.082;8.200;2023-02-11T01:30:10;71.13;;;35.13;;
7199;SDS011;3641;49.082;8.200;2023-02-11T01:32:39;72.03;;;35.35;;
7199;SDS011;3641;49.082;8.200;2023-02-11T01:35:06;62.85;;;33.03;;
7199;SDS011;3641;49.082;8.200;2023-02-11T01:37:34;67.05;;;34.65;;
7199;SDS011;3641;49.082;8.200;2023-02-11T01:40:01;62.83;;;33.13;;
7199;SDS011;3641;49.082;8.200;2023-02-11T01:42:29;64.50;;;33.55;;
7199;SDS011;3641;49.082;8.200;2023-02-11T01:44:56;66.20;;;33.60;;
7199;SDS011;3641;49.082;8.200;2023-02-11T01:47:23;65.30;;;33.50;;
7199;SDS011;3641;49.082;8.200;2023-02-11T01:49:50;64.35;;;33.00;;
7199;SDS011;3641;49.082;8.200;2023-02-11T01:52:22;62.80;;;33.08;;
7199;SDS011;3641;49.082;8.200;2023-02-11T01:54:55;62.78;;;32.78;;
7199;SDS011;3641;49.082;8.200;2023-02-11T01:57:43;65.68;;;33.50;;
7199;SDS011;3641;49.082;8.200;2023-02-11T02:00:14;65.57;;;33.13;;
7199;SDS011;3641;49.082;8.200;2023-02-11T02:02:46;64.40;;;34.05;;
7199;SDS011;3641;49.082;8.200;2023-02-11T02:05:20;62.60;;;32.92;;
7199;SDS011;3641;49.082;8.200;2023-02-11T02:07:51;64.30;;;32.72;;
7199;SDS011;3641;49.082;8.200;2023-02-11T02:10:25;68.47;;;35.00;;
7199;SDS011;3641;49.082;8.200;2023-02-11T02:12:54;67.70;;;35.03;;
7199;SDS011;3641;49.082;8.200;2023-02-11T02:15:22;66.50;;;34.15;;
7199;SDS011;3641;49.082;8.200;2023-02-11T02:17:58;70.82;;;34.85;;
7199;SDS011;3641;49.082;8.200;2023-02-11T02:20:35;69.07;;;35.63;;
7199;SDS011;3641;49.082;8.200;2023-02-11T02:23:21;71.07;;;34.80;;
7199;SDS011;3641;49.082;8.200;2023-02-11T02:26:09;67.35;;;33.72;;
7199;SDS011;3641;49.082;8.200;2023-02-11T02:28:57;63.00;;;32.97;;
7199;SDS011;3641;49.082;8.200;2023-02-11T02:31:41;68.45;;;33.50;;
7199;SDS011;3641;49.082;8.200;2023-02-11T02:34:22;63.85;;;33.05;;
7199;SDS011;3641;49.082;8.200;2023-02-11T02:36:57;62.60;;;32.38;;
7199;SDS011;3641;49.082;8.200;2023-02-11T02:39:30;63.42;;;31.00;;
7199;SDS011;3641;49.082;8.200;2023-02-11T02:42:00;58.75;;;30.42;;
7199;SDS011;3641;49.082;8.200;2023-02-11T02:44:27;58.10;;;30.83;;
7199;SDS011;3641;49.082;8.200;2023-02-11T02:46:54;59.08;;;30.65;;
7199;SDS011;3641;49.082;8.200;2023-02-11T02:49:22;53.63;;;29.38;;
7199;SDS011;3641;49.082;8.200;2023-02-11T02:52:03;58.03;;;31.00;;
7199;SDS011;3641;49.082;8.200;2023-02-11T02:55:00;58.85;;;30.25;;
7199;SDS011;3641;49.082;8.200;2023-02-11T02:57:35;61.67;;;30.35;;
7199;SDS011;3641;49.082;8.200;2023-02-11T03:00:12;58.55;;;30.30;;
7199;SDS011;3641;49.082;8.200;2023-02-11T03:02:49;59.60;;;31.30;;
7199;SDS011;3641;49.082;8.200;2023-02-11T03:05:26;60.88;;;31.48;;
7199;SDS011;3641;49.082;8.200;2023-02-11T03:08:01;59.17;;;30.88;;
7199;SDS011;3641;49.082;8.200;2023-02-11T03:10:34;60.13;;;32.10;;
7199;SDS011;3641;49.082;8.200;2023-02-11T03:13:03;57.17;;;30.90;;
7199;SDS011;3641;49.082;8.200;2023-02-11T03:15:37;61.05;;;31.90;;
7199;SDS011;3641;49.082;8.200;2023-02-11T03:18:06;59.25;;;31.15;;
7199;SDS011;3641;49.082;8.200;2023-02-11T03:20:37;60.67;;;30.60;;
7199;SDS011;3641;49.082;8.200;2023-02-11T03:23:07;57.42;;;31.17;;
7199;SDS011;3641;49.082;8.200;2023-02-11T03:25:38;59.10;;;30.55;;
7199;SDS011;3641;49.082;8.200;2023-02-11T03:28:11;56.15;;;30.48;;
7199;SDS011;3641;49.082;8.200;2023-02-11T03:30:42;58.20;;;31.17;;
7199;SDS011;3641;49.082;8.200;2023-02-11T03:33:17;54.40;;;30.50;;
7199;SDS011;3641;49.082;8.200;2023-02-11T03:35:51;58.75;;;32.15;;
7199;SDS011;3641;49.082;8.200;2023-02-11T03:38:20;58.30;;;30.42;;
7199;SDS011;3641;49.082;8.200;2023-02-11T03:40:51;55.13;;;31.75;;
7199;SDS011;3641;49.082;8.200;2023-02-11T03:43:21;60.00;;;32.40;;
7199;SDS011;3641;49.082;8.200;2023-02-11T03:45:52;61.80;;;32.22;;
7199;SDS011;3641;49.082;8.200;2023-02-11T03:48:21;65.05;;;32.58;;
7199;SDS011;3641;49.082;8.200;2023-02-11T03:50:53;58.63;;;33.10;;
7199;SDS011;3641;49.082;8.200;2023-02-11T03:53:21;66.22;;;32.88;;
7199;SDS011;3641;49.082;8.200;2023-02-11T03:55:49;62.20;;;33.15;;
7199;SDS011;3641;49.082;8.200;2023-02-11T03:58:18;59.28;;;31.70;;
7199;SDS011;3641;49.082;8.200;2023-02-11T04:00:45;60.05;;;32.00;;
7199;SDS011;3641;49.082;8.200;2023-02-11T04:03:11;59.45;;;32.17;;
7199;SDS011;3641;49.082;8.200;2023-02-11T04:05:38;62.83;;;32.33;;
7199;SDS011;3641;49.082;8.200;2023-02-11T04:08:07;64.60;;;33.42;;
7199;SDS011;3641;49.082;8.200;2023-02-11T04:10:34;61.35;;;32.40;;
7199;SDS011;3641;49.082;8.200;2023-02-11T04:13:00;61.70;;;31.20;;
7199;SDS011;3641;49.082;8.200;2023-02-11T04:15:27;61.05;;;32.20;;
7199;SDS011;3641;49.082;8.200;2023-02-11T04:17:53;58.08;;;32.25;;
7199;SDS011;3641;49.082;8.200;2023-02-11T04:20:19;58.95;;;30.95;;
7199;SDS011;3641;49.082;8.200;2023-02-11T04:22:46;59.00;;;30.75;;
7199;SDS011;3641;49.082;8.200;2023-02-11T04:25:14;59.20;;;30.98;;
7199;SDS011;3641;49.082;8.200;2023-02-11T04:27:41;59.92;;;30.95;;
7199;SDS011;3641;49.082;8.200;2023-02-11T04:30:07;57.60;;;30.05;;
7199;SDS011;3641;49.082;8.200;2023-02-11T04:32:34;61.58;;;32.50;;
7199;SDS011;3641;49.082;8.200;2023-02-11T04:35:01;64.13;;;32.67;;
7199;SDS011;3641;49.082;8.200;2023-02-11T04:37:28;59.05;;;31.10;;
7199;SDS011;3641;49.082;8.200;2023-02-11T04:39:54;59.58;;;32.28;;
7199;SDS011;3641;49.082;8.200;2023-02-11T04:42:22;58.33;;;31.40;;
7199;SDS011;3641;49.082;8.200;2023-02-11T04:44:49;57.25;;;31.98;;
7199;SDS011;3641;49.082;8.200;2023-02-11T04:47:15;59.03;;;32.58;;
7199;SDS011;3641;49.082;8.200;2023-02-11T04:49:42;64.05;;;32.50;;
7199;SDS011;3641;49.082;8.200;2023-02-11T04:52:08;56.63;;;31.88;;
7199;SDS011;3641;49.082;8.200;2023-02-11T04:54:35;59.65;;;30.77;;
7199;SDS011;3641;49.082;8.200;2023-02-11T04:57:01;60.00;;;31.15;;
7199;SDS011;3641;49.082;8.200;2023-02-11T04:59:29;60.45;;;31.92;;
7199;SDS011;3641;49.082;8.200;2023-02-11T05:01:56;57.53;;;30.45;;
7199;SDS011;3641;49.082;8.200;2023-02-11T05:04:22;58.97;;;30.08;;
7199;SDS011;3641;49.082;8.200;2023-02-11T05:06:49;56.63;;;31.35;;
7199;SDS011;3641;49.082;8.200;2023-02-11T05:09:15;56.85;;;30.48;;
7199;SDS011;3641;49.082;8.200;2023-02-11T05:11:42;62.45;;;31.95;;
7199;SDS011;3641;49.082;8.200;2023-02-11T05:14:08;59.45;;;30.38;;
7199;SDS011;3641;49.082;8.200;2023-02-11T05:16:36;55.38;;;29.98;;
7199;SDS011;3641;49.082;8.200;2023-02-11T05:19:03;56.60;;;29.48;;
7199;SDS011;3641;49.082;8.200;2023-02-11T05:21:30;56.90;;;30.25;;
7199;SDS011;3641;49.082;8.200;2023-02-11T05:23:56;58.80;;;30.27;;
7199;SDS011;3641;49.082;8.200;2023-02-11T05:26:23;54.00;;;30.30;;
7199;SDS011;3641;49.082;8.200;2023-02-11T05:28:50;56.60;;;30.23;;
7199;SDS011;3641;49.082;8.200;2023-02-11T05:31:16;54.28;;;29.50;;
7199;SDS011;3641;49.082;8.200;2023-02-11T05:33:44;58.78;;;30.65;;
7199;SDS011;3641;49.082;8.200;2023-02-11T05:36:11;58.38;;;30.38;;
7199;SDS011;3641;49.082;8.200;2023-02-11T05:38:38;56.97;;;31.30;;
7199;SDS011;3641;49.082;8.200;2023-02-11T05:41:06;61.50;;;31.42;;
7199;SDS011;3641;49.082;8.200;2023-02-11T05:43:33;59.22;;;30.75;;
7199;SDS011;3641;49.082;8.200;2023-02-11T05:46:00;58.33;;;30.65;;
7199;SDS011;3641;49.082;8.200;2023-02-11T05:48:27;59.40;;;31.08;;
7199;SDS011;3641;49.082;8.200;2023-02-11T05:50:55;56.85;;;29.83;;
7199;SDS011;3641;49.082;8.200;2023-02-11T05:53:22;53.55;;;28.52;;
7199;SDS011;3641;49.082;8.200;2023-02-11T05:55:48;57.92;;;30.90;;
7199;SDS011;3641;49.082;8.200;2023-02-11T05:58:15;58.55;;;30.60;;
7199;SDS011;3641;49.082;8.200;2023-02-11T06:00:41;56.65;;;29.90;;
7199;SDS011;3641;49.082;8.200;2023-02-11T06:03:08;53.78;;;29.20;;
7199;SDS011;3641;49.082;8.200;2023-02-11T06:05:34;58.85;;;30.63;;
7199;SDS011;3641;49.082;8.200;2023-02-11T06:08:02;62.92;;;31.45;;
7199;SDS011;3641;49.082;8.200;2023-02-11T06:10:29;55.47;;;29.70;;
7199;SDS011;3641;49.082;8.200;2023-02-11T06:12:56;55.08;;;29.13;;
7199;SDS011;3641;49.082;8.200;2023-02-11T06:15:22;61.22;;;32.00;;
7199;SDS011;3641;49.082;8.200;2023-02-11T06:17:49;62.47;;;29.70;;
7199;SDS011;3641;49.082;8.200;2023-02-11T06:20:16;57.38;;;29.50;;
7199;SDS011;3641;49.082;8.200;2023-02-11T06:22:42;56.95;;;30.27;;
7199;SDS011;3641;49.082;8.200;2023-02-11T06:25:10;55.78;;;28.92;;
7199;SDS011;3641;49.082;8.200;2023-02-11T06:27:37;56.38;;;29.58;;
7199;SDS011;3641;49.082;8.200;2023-02-11T06:30:04;57.33;;;29.35;;
7199;SDS011;3641;49.082;8.200;2023-02-11T06:32:31;57.53;;;30.30;;
7199;SDS011;3641;49.082;8.200;2023-02-11T06:34:58;53.30;;;29.45;;
7199;SDS011;3641;49.082;8.200;2023-02-11T06:37:25;60.50;;;30.98;;
7199;SDS011;3641;49.082;8.200;2023-02-11T06:39:52;55.42;;;28.75;;
7199;SDS011;3641;49.082;8.200;2023-02-11T06:42:19;56.25;;;29.65;;
7199;SDS011;3641;49.082;8.200;2023-02-11T06:44:46;57.78;;;29.77;;
7199;SDS011;3641;49.082;8.200;2023-02-11T06:47:12;50.75;;;28.35;;
7199;SDS011;3641;49.082;8.200;2023-02-11T06:49:39;61.40;;;29.20;;
7199;SDS011;3641;49.082;8.200;2023-02-11T06:52:05;55.15;;;29.88;;
7199;SDS011;3641;49.082;8.200;2023-02-11T06:54:32;52.08;;;27.83;;
7199;SDS011;3641;49.082;8.200;2023-02-11T06:56:58;50.28;;;27.20;;
7199;SDS011;3641;49.082;8.200;2023-02-11T06:59:26;51.30;;;27.48;;
7199;SDS011;3641;49.082;8.200;2023-02-11T07:01:53;54.22;;;28.35;;
7199;SDS011;3641;49.082;8.200;2023-02-11T07:04:19;50.58;;;27.15;;
7199;SDS011;3641;49.082;8.200;2023-02-11T07:06:46;51.40;;;26.30;;
7199;SDS011;3641;49.082;8.200;2023-02-11T07:09:13;50.03;;;27.17;;
7199;SDS011;3641;49.082;8.200;2023-02-11T07:11:39;52.55;;;27.83;;
7199;SDS011;3641;49.082;8.200;2023-02-11T07:14:06;53.35;;;28.98;;
7199;SDS011;3641;49.082;8.200;2023-02-11T07:16:34;56.65;;;30.50;;
7199;SDS011;3641;49.082;8.200;2023-02-11T07:19:01;60.03;;;30.77;;
7199;SDS011;3641;49.082;8.200;2023-02-11T07:21:28;64.15;;;31.58;;
7199;SDS011;3641;49.082;8.200;2023-02-11T07:23:54;60.75;;;31.80;;
7199;SDS011;3641;49.082;8.200;2023-02-11T07:26:22;59.53;;;31.92;;
7199;SDS011;3641;49.082;8.200;2023-02-11T07:28:50;63.92;;;31.67;;
7199;SDS011;3641;49.082;8.200;2023-02-11T07:31:18;61.13;;;31.50;;
7199;SDS011;3641;49.082;8.200;2023-02-11T07:33:47;63.13;;;31.52;;
7199;SDS011;3641;49.082;8.200;2023-02-11T07:36:14;59.35;;;29.83;;
7199;SDS011;3641;49.082;8.200;2023-02-11T07:38:42;56.33;;;30.35;;
7199;SDS011;3641;49.082;8.200;2023-02-11T07:41:09;58.65;;;31.13;;
7199;SDS011;3641;49.082;8.200;2023-02-11T07:43:37;56.78;;;31.25;;
7199;SDS011;3641;49.082;8.200;2023-02-11T07:46:05;54.33;;;30.45;;
7199;SDS011;3641;49.082;8.200;2023-02-11T07:48:32;55.15;;;29.17;;
7199;SDS011;3641;49.082;8.200;2023-02-11T07:51:06;53.28;;;28.90;;
7199;SDS011;3641;49.082;8.200;2023-02-11T07:53:33;55.80;;;28.63;;
7199;SDS011;3641;49.082;8.200;2023-02-11T07:55:59;54.83;;;29.30;;
7199;SDS011;3641;49.082;8.200;2023-02-11T07:58:27;60.63;;;32.38;;
7199;SDS011;3641;49.082;8.200;2023-02-11T08:00:54;51.13;;;27.95;;
7199;SDS011;3641;49.082;8.200;2023-02-11T08:03:20;52.80;;;28.17;;
7199;SDS011;3641;49.082;8.200;2023-02-11T08:05:47;51.15;;;28.10;;
7199;SDS011;3641;49.082;8.200;2023-02-11T08:08:14;55.72;;;28.60;;
7199;SDS011;3641;49.082;8.200;2023-02-11T08:10:41;51.88;;;27.88;;
7199;SDS011;3641;49.082;8.200;2023-02-11T08:13:07;51.13;;;28.05;;
7199;SDS011;3641;49.082;8.200;2023-02-11T08:15:34;53.35;;;28.40;;
7199;SDS011;3641;49.082;8.200;2023-02-11T08:18:00;53.88;;;28.20;;
7199;SDS011;3641;49.082;8.200;2023-02-11T08:20:27;52.55;;;25.70;;
7199;SDS011;3641;49.082;8.200;2023-02-11T08:22:53;48.63;;;26.30;;
7199;SDS011;3641;49.082;8.200;2023-02-11T08:25:21;45.85;;;26.17;;
7199;SDS011;3641;49.082;8.200;2023-02-11T08:27:47;51.72;;;27.25;;
7199;SDS011;3641;49.082;8.200;2023-02-11T08:30:14;51.30;;;27.58;;
7199;SDS011;3641;49.082;8.200;2023-02-11T08:32:40;47.70;;;27.35;;
7199;SDS011;3641;49.082;8.200;2023-02-11T08:35:07;51.53;;;27.90;;
7199;SDS011;3641;49.082;8.200;2023-02-11T08:37:36;50.65;;;26.73;;
7199;SDS011;3641;49.082;8.200;2023-02-11T08:40:03;49.53;;;25.63;;
7199;SDS011;3641;49.082;8.200;2023-02-11T08:42:31;48.95;;;25.95;;
7199;SDS011;3641;49.082;8.200;2023-02-11T08:44:58;48.83;;;25.88;;
7199;SDS011;3641;49.082;8.200;2023-02-11T08:47:24;43.38;;;23.92;;
7199;SDS011;3641;49.082;8.200;2023-02-11T08:49:51;48.83;;;24.92;;
7199;SDS011;3641;49.082;8.200;2023-02-11T08:52:17;43.83;;;23.33;;
7199;SDS011;3641;49.082;8.200;2023-02-11T08:54:43;43.40;;;23.55;;
7199;SDS011;3641;49.082;8.200;2023-02-11T08:57:11;44.22;;;23.33;;
7199;SDS011;3641;49.082;8.200;2023-02-11T08:59:38;38.40;;;20.88;;
7199;SDS011;3641;49.082;8.200;2023-02-11T09:02:05;36.83;;;20.83;;
7199;SDS011;3641;49.082;8.200;2023-02-11T09:04:32;38.10;;;20.85;;
7199;SDS011;3641;49.082;8.200;2023-02-11T09:06:58;37.47;;;20.10;;
7199;SDS011;3641;49.082;8.200;2023-02-11T09:09:25;33.95;;;19.00;;
7199;SDS011;3641;49.082;8.200;2023-02-11T09:11:51;35.38;;;18.98;;
7199;SDS011;3641;49.082;8.200;2023-02-11T09:14:21;32.22;;;18.02;;
7199;SDS011;3641;49.082;8.200;2023-02-11T09:16:50;32.97;;;17.98;;
7199;SDS011;3641;49.082;8.200;2023-02-11T09:19:17;35.67;;;19.13;;
7199;SDS011;3641;49.082;8.200;2023-02-11T09:21:44;32.10;;;18.40;;
7199;SDS011;3641;49.082;8.200;2023-02-11T09:24:10;35.13;;;19.70;;
7199;SDS011;3641;49.082;8.200;2023-02-11T09:26:37;34.70;;;18.65;;
7199;SDS011;3641;49.082;8.200;2023-02-11T09:29:03;36.88;;;19.35;;
7199;SDS011;3641;49.082;8.200;2023-02-11T09:31:31;35.08;;;18.65;;
7199;SDS011;3641;49.082;8.200;2023-02-11T09:34:01;37.72;;;19.58;;
7199;SDS011;3641;49.082;8.200;2023-02-11T09:36:29;35.42;;;19.05;;
7199;SDS011;3641;49.082;8.200;2023-02-11T09:38:58;37.47;;;19.65;;
7199;SDS011;3641;49.082;8.200;2023-02-11T09:41:31;35.67;;;19.63;;
7199;SDS011;3641;49.082;8.200;2023-02-11T09:44:05;38.70;;;20.70;;
7199;SDS011;3641;49.082;8.200;2023-02-11T09:46:34;32.40;;;18.38;;
7199;SDS011;3641;49.082;8.200;2023-02-11T09:49:06;35.92;;;19.70;;
7199;SDS011;3641;49.082;8.200;2023-02-11T09:51:41;32.28;;;19.20;;
7199;SDS011;3641;49.082;8.200;2023-02-11T09:54:18;34.53;;;18.45;;
7199;SDS011;3641;49.082;8.200;2023-02-11T09:56:51;35.60;;;19.63;;
7199;SDS011;3641;49.082;8.200;2023-02-11T09:59:17;36.67;;;19.45;;
7199;SDS011;3641;49.082;8.200;2023-02-11T10:01:45;35.17;;;19.55;;
7199;SDS011;3641;49.082;8.200;2023-02-11T10:04:19;38.17;;;20.23;;
7199;SDS011;3641;49.082;8.200;2023-02-11T10:06:58;33.08;;;18.67;;
7199;SDS011;3641;49.082;8.200;2023-02-11T10:12:39;32.35;;;18.65;;
7199;SDS011;3641;49.082;8.200;2023-02-11T10:15:19;34.92;;;19.70;;
7199;SDS011;3641;49.082;8.200;2023-02-11T10:17:55;33.97;;;18.75;;
7199;SDS011;3641;49.082;8.200;2023-02-11T10:20:33;34.83;;;18.83;;
7199;SDS011;3641;49.082;8.200;2023-02-11T10:23:07;32.90;;;18.25;;
7199;SDS011;3641;49.082;8.200;2023-02-11T10:25:39;37.85;;;18.77;;
7199;SDS011;3641;49.082;8.200;2023-02-11T10:28:10;35.08;;;18.15;;
7199;SDS011;3641;49.082;8.200;2023-02-11T10:30:40;32.85;;;18.23;;
7199;SDS011;3641;49.082;8.200;2023-02-11T10:33:11;34.35;;;18.70;;
7199;SDS011;3641;49.082;8.200;2023-02-11T10:35:46;34.85;;;19.05;;
7199;SDS011;3641;49.082;8.200;2023-02-11T10:38:12;36.08;;;19.70;;
7199;SDS011;3641;49.082;8.200;2023-02-11T10:40:39;33.65;;;18.98;;
7199;SDS011;3641;49.082;8.200;2023-02-11T10:43:06;35.92;;;19.45;;
7199;SDS011;3641;49.082;8.200;2023-02-11T10:45:38;35.83;;;19.15;;
7199;SDS011;3641;49.082;8.200;2023-02-11T10:51:11;32.20;;;18.23;;
7199;SDS011;3641;49.082;8.200;2023-02-11T10:53:41;31.63;;;17.90;;
7199;SDS011;3641;49.082;8.200;2023-02-11T10:56:10;33.40;;;19.27;;
7199;SDS011;3641;49.082;8.200;2023-02-11T10:58:39;31.95;;;18.45;;
7199;SDS011;3641;49.082;8.200;2023-02-11T11:01:08;30.80;;;17.90;;
7199;SDS011;3641;49.082;8.200;2023-02-11T11:03:36;37.15;;;19.60;;
7199;SDS011;3641;49.082;8.200;2023-02-11T11:06:07;34.20;;;19.35;;
7199;SDS011;3641;49.082;8.200;2023-02-11T11:08:41;33.75;;;19.27;;
7199;SDS011;3641;49.082;8.200;2023-02-11T11:11:11;35.35;;;19.55;;
7199;SDS011;3641;49.082;8.200;2023-02-11T11:13:39;34.15;;;19.80;;
7199;SDS011;3641;49.082;8.200;2023-02-11T11:16:21;34.47;;;19.48;;
7199;SDS011;3641;49.082;8.200;2023-02-11T11:18:49;35.00;;;19.45;;
7199;SDS011;3641;49.082;8.200;2023-02-11T11:21:20;31.40;;;18.52;;
7199;SDS011;3641;49.082;8.200;2023-02-11T11:23:50;33.70;;;19.50;;
7199;SDS011;3641;49.082;8.200;2023-02-11T11:26:22;32.25;;;18.85;;
7199;SDS011;3641;49.082;8.200;2023-02-11T11:28:57;33.25;;;19.00;;
7199;SDS011;3641;49.082;8.200;2023-02-11T11:31:27;34.28;;;19.67;;
7199;SDS011;3641;49.082;8.200;2023-02-11T11:33:57;38.72;;;21.08;;
7199;SDS011;3641;49.082;8.200;2023-02-11T11:36:31;35.28;;;19.88;;
7199;SDS011;3641;49.082;8.200;2023-02-11T11:39:02;34.22;;;19.33;;
7199;SDS011;3641;49.082;8.200;2023-02-11T11:41:47;32.70;;;19.23;;
7199;SDS011;3641;49.082;8.200;2023-02-11T11:44:18;32.45;;;19.50;;
7199;SDS011;3641;49.082;8.200;2023-02-11T11:46:50;35.88;;;20.65;;
7199;SDS011;3641;49.082;8.200;2023-02-11T11:49:31;36.13;;;19.00;;
7199;SDS011;3641;49.082;8.200;2023-02-11T11:52:08;31.85;;;19.35;;
7199;SDS011;3641;49.082;8.200;2023-02-11T11:54:43;30.90;;;19.15;;
7199;SDS011;3641;49.082;8.200;2023-02-11T11:57:15;34.15;;;19.55;;
7199;SDS011;3641;49.082;8.200;2023-02-11T11:59:47;36.03;;;20.75;;
7199;SDS011;3641;49.082;8.200;2023-02-11T12:02:21;36.65;;;20.95;;
7199;SDS011;3641;49.082;8.200;2023-02-11T12:05:00;38.47;;;21.05;;
7199;SDS011;3641;49.082;8.200;2023-02-11T12:07:35;38.58;;;21.27;;
7199;SDS011;3641;49.082;8.200;2023-02-11T12:10:26;33.30;;;20.30;;
7199;SDS011;3641;49.082;8.200;2023-02-11T12:13:01;31.75;;;19.40;;
7199;SDS011;3641;49.082;8.200;2023-02-11T12:15:40;34.38;;;19.88;;
7199;SDS011;3641;49.082;8.200;2023-02-11T12:18:16;34.15;;;20.75;;
7199;SDS011;3641;49.082;8.200;2023-02-11T12:21:07;36.47;;;21.60;;
7199;SDS011;3641;49.082;8.200;2023-02-11T12:23:49;35.00;;;19.70;;
7199;SDS011;3641;49.082;8.200;2023-02-11T12:26:25;32.95;;;19.65;;
7199;SDS011;3641;49.082;8.200;2023-02-11T12:28:59;33.50;;;19.67;;
7199;SDS011;3641;49.082;8.200;2023-02-11T12:31:39;34.00;;;19.75;;
7199;SDS011;3641;49.082;8.200;2023-02-11T12:34:23;36.08;;;21.02;;
7199;SDS011;3641;49.082;8.200;2023-02-11T12:37:15;35.80;;;19.95;;
7199;SDS011;3641;49.082;8.200;2023-02-11T12:39:50;33.20;;;20.75;;
7199;SDS011;3641;49.082;8.200;2023-02-11T12:42:32;35.78;;;20.55;;
7199;SDS011;3641;49.082;8.200;2023-02-11T12:45:26;34.45;;;20.42;;
7199;SDS011;3641;49.082;8.200;2023-02-11T12:48:11;34.13;;;19.50;;
7199;SDS011;3641;49.082;8.200;2023-02-11T12:50:51;36.17;;;20.42;;
7199;SDS011;3641;49.082;8.200;2023-02-11T12:53:30;29.70;;;18.60;;
7199;SDS011;3641;49.082;8.200;2023-02-11T12:56:13;35.17;;;19.77;;
7199;SDS011;3641;49.082;8.200;2023-02-11T12:58:45;32.72;;;19.27;;
7199;SDS011;3641;49.082;8.200;2023-02-11T13:01:15;31.70;;;18.60;;
7199;SDS011;3641;49.082;8.200;2023-02-11T13:03:46;32.15;;;18.58;;
7199;SDS011;3641;49.082;8.200;2023-02-11T13:06:16;33.60;;;19.70;;
7199;SDS011;3641;49.082;8.200;2023-02-11T13:08:46;33.15;;;19.90;;
7199;SDS011;3641;49.082;8.200;2023-02-11T13:11:16;33.58;;;18.70;;
7199;SDS011;3641;49.082;8.200;2023-02-11T13:13:46;31.88;;;19.25;;
7199;SDS011;3641;49.082;8.200;2023-02-11T13:16:18;30.70;;;18.70;;
7199;SDS011;3641;49.082;8.200;2023-02-11T13:18:59;30.80;;;19.10;;
7199;SDS011;3641;49.082;8.200;2023-02-11T13:21:35;30.45;;;18.55;;
7199;SDS011;3641;49.082;8.200;2023-02-11T13:24:15;31.98;;;18.98;;
7199;SDS011;3641;49.082;8.200;2023-02-11T13:26:53;30.15;;;19.20;;
7199;SDS011;3641;49.082;8.200;2023-02-11T13:29:28;36.28;;;19.20;;
7199;SDS011;3641;49.082;8.200;2023-02-11T13:32:05;34.38;;;19.80;;
7199;SDS011;3641;49.082;8.200;2023-02-11T13:37:22;33.45;;;19.60;;
7199;SDS011;3641;49.082;8.200;2023-02-11T13:39:55;34.08;;;19.75;;
7199;SDS011;3641;49.082;8.200;2023-02-11T13:42:24;33.72;;;19.38;;
7199;SDS011;3641;49.082;8.200;2023-02-11T13:44:52;33.28;;;19.33;;
7199;SDS011;3641;49.082;8.200;2023-02-11T13:47:24;32.40;;;19.88;;
7199;SDS011;3641;49.082;8.200;2023-02-11T13:49:54;32.47;;;18.67;;
7199;SDS011;3641;49.082;8.200;2023-02-11T13:52:23;31.10;;;18.35;;
7199;SDS011;3641;49.082;8.200;2023-02-11T13:54:53;30.45;;;18.10;;
7199;SDS011;3641;49.082;8.200;2023-02-11T14:03:22;29.92;;;18.77;;
7199;SDS011;3641;49.082;8.200;2023-02-11T14:06:12;32.50;;;18.90;;
7199;SDS011;3641;49.082;8.200;2023-02-11T14:09:09;32.28;;;18.98;;
7199;SDS011;3641;49.082;8.200;2023-02-11T14:17:50;30.23;;;18.17;;
7199;SDS011;3641;49.082;8.200;2023-02-11T14:20:31;32.55;;;19.35;;
7199;SDS011;3641;49.082;8.200;2023-02-11T14:23:03;30.20;;;17.48;;
7199;SDS011;3641;49.082;8.200;2023-02-11T14:25:30;33.38;;;18.35;;
7199;SDS011;3641;49.082;8.200;2023-02-11T14:27:59;29.33;;;17.58;;
7199;SDS011;3641;49.082;8.200;2023-02-11T14:30:39;30.83;;;18.90;;
7199;SDS011;3641;49.082;8.200;2023-02-11T14:33:25;33.97;;;17.88;;
7199;SDS011;3641;49.082;8.200;2023-02-11T14:36:06;30.40;;;17.83;;
7199;SDS011;3641;49.082;8.200;2023-02-11T14:38:45;31.13;;;18.58;;
7199;SDS011;3641;49.082;8.200;2023-02-11T14:41:24;29.40;;;17.38;;
7199;SDS011;3641;49.082;8.200;2023-02-11T14:43:53;30.77;;;16.73;;
7199;SDS011;3641;49.082;8.200;2023-02-11T14:46:23;29.20;;;17.05;;
7199;SDS011;3641;49.082;8.200;2023-02-11T14:48:54;32.63;;;18.35;;
7199;SDS011;3641;49.082;8.200;2023-02-11T14:51:24;29.17;;;17.35;;
7199;SDS011;3641;49.082;8.200;2023-02-11T14:53:54;28.42;;;17.42;;
7199;SDS011;3641;49.082;8.200;2023-02-11T14:56:25;26.75;;;16.13;;
7199;SDS011;3641;49.082;8.200;2023-02-11T14:58:55;31.17;;;16.45;;
7199;SDS011;3641;49.082;8.200;2023-02-11T15:01:25;29.08;;;17.23;;
7199;SDS011;3641;49.082;8.200;2023-02-11T15:03:54;26.30;;;16.13;;
7199;SDS011;3641;49.082;8.200;2023-02-11T15:06:22;24.73;;;14.93;;
7199;SDS011;3641;49.082;8.200;2023-02-11T15:08:52;27.77;;;14.98;;
7199;SDS011;3641;49.082;8.200;2023-02-11T15:11:22;22.38;;;14.55;;
7199;SDS011;3641;49.082;8.200;2023-02-11T15:13:50;25.42;;;14.15;;
7199;SDS011;3641;49.082;8.200;2023-02-11T15:16:19;23.95;;;14.23;;
7199;SDS011;3641;49.082;8.200;2023-02-11T15:18:50;23.30;;;14.27;;
7199;SDS011;3641;49.082;8.200;2023-02-11T15:21:21;26.50;;;14.68;;
7199;SDS011;3641;49.082;8.200;2023-02-11T15:23:56;25.92;;;14.63;;
7199;SDS011;3641;49.082;8.200;2023-02-11T15:26:24;26.08;;;14.57;;
7199;SDS011;3641;49.082;8.200;2023-02-11T15:28:51;26.60;;;14.20;;